Time;durP1;ratioP1;P1;durP2;ratioP2;P2;SDS_P1;SDS_P2;PMS_P1;PMS_P2;Temp;Humidity;BMP_temperature;BMP_pressure;BME280_temperature;BME280_humidity;BME280_pressure;Samples;Min_cycle;Max_cycle;Signal;HPM_P1;HPM_P2
2023/07/15 02:56:26;;;;;;;5.70;3.50;;;;;;;17.49;71.80;99787.42;102882;1292;603629;-72
2023/07/15 02:58:54;;;;;;;5.50;3.40;;;;;;;17.44;71.82;99789.92;104993;1267;60186;-73
2023/07/15 03:01:21;;;;;;;7.70;3.40;;;;;;;17.44;71.99;99791.33;105133;1267;60299;-74
2023/07/15 03:03:48;;;;;;;5.00;3.90;;;;;;;17.44;72.14;99787.61;104998;1270;72118;-76
2023/07/15 03:06:14;;;;;;;4.30;3.80;;;;;;;17.43;71.91;99790.96;105308;1267;70771;-72
2023/07/15 03:08:44;;;;;;;4.60;4.00;;;;;;;17.43;71.99;99791.05;108336;1263;178061;-75
2023/07/15 03:11:11;;;;;;;5.80;4.10;;;;;;;17.51;72.05;99798.82;108422;1262;60653;-75
2023/07/15 03:13:39;;;;;;;3.50;3.20;;;;;;;17.57;71.94;99799.92;107860;1264;59097;-76
2023/07/15 03:16:06;;;;;;;4.10;3.70;;;;;;;17.54;72.12;99802.66;105162;1268;72780;-76
2023/07/15 03:18:35;;;;;;;4.10;3.40;;;;;;;17.48;72.27;99800.52;105234;1264;70177;-75
2023/07/15 03:21:02;;;;;;;5.40;3.30;;;;;;;17.41;72.35;99799.98;105455;1257;71536;-75
2023/07/15 03:23:29;;;;;;;5.50;3.50;;;;;;;17.37;72.79;99804.62;105756;1259;59672;-76
2023/07/15 03:25:56;;;;;;;5.30;3.70;;;;;;;17.33;73.06;99802.31;105838;1258;59687;-75
2023/07/15 03:28:23;;;;;;;4.10;3.40;;;;;;;17.35;73.29;99803.26;105509;1262;73020;-74
2023/07/15 03:30:50;;;;;;;7.00;3.30;;;;;;;17.39;73.16;99800.92;105688;1259;70771;-76
2023/07/15 03:33:19;;;;;;;7.00;3.50;;;;;;;17.36;73.21;99795.90;105882;1259;71133;-75
2023/07/15 03:35:46;;;;;;;4.10;3.10;;;;;;;17.32;73.45;99796.29;105815;1259;60261;-75
2023/07/15 03:38:12;;;;;;;4.00;3.50;;;;;;;17.29;73.50;99793.98;107277;1257;59535;-77
2023/07/15 03:40:41;;;;;;;6.20;4.00;;;;;;;17.28;73.78;99789.39;108605;1254;71502;-75
2023/07/15 03:43:10;;;;;;;6.30;3.70;;;;;;;17.31;73.68;99793.06;107390;1257;68824;-75
2023/07/15 03:45:36;;;;;;;6.60;3.30;;;;;;;17.40;73.68;99793.45;105880;1257;71680;-76
2023/07/15 03:48:05;;;;;;;4.00;3.40;;;;;;;17.46;73.56;99794.92;106178;1256;60430;-74
2023/07/15 03:50:32;;;;;;;7.10;3.50;;;;;;;17.46;73.52;99800.95;106260;1256;59500;-76
2023/07/15 03:52:59;;;;;;;4.50;3.70;;;;;;;17.45;73.53;99804.80;105804;1257;71704;-76
2023/07/15 03:55:25;;;;;;;4.60;3.00;;;;;;;17.46;73.56;99811.20;105814;1258;70219;-77
2023/07/15 03:57:52;;;;;;;4.70;3.10;;;;;;;17.50;73.86;99817.95;105741;1260;72602;-76
2023/07/15 04:00:19;;;;;;;6.00;3.40;;;;;;;17.64;73.81;99824.08;105656;1260;60989;-76
2023/07/15 04:02:48;;;;;;;4.80;3.40;;;;;;;17.77;73.73;99824.80;106150;1260;59618;-76
2023/07/15 04:05:16;;;;;;;5.90;3.00;;;;;;;17.84;73.74;99828.67;106965;1259;73051;-75
2023/07/15 04:07:44;;;;;;;8.50;3.70;;;;;;;17.90;73.28;99830.23;107451;1258;70269;-73
2023/07/15 04:10:11;;;;;;;4.50;3.60;;;;;;;17.95;73.05;99830.95;108000;1259;72643;-75
2023/07/15 04:12:38;;;;;;;5.30;3.20;;;;;;;18.01;72.99;99831.63;106764;1256;60377;-76
2023/07/15 04:15:06;;;;;;;4.50;3.60;;;;;;;18.07;73.20;99832.51;106141;1259;60316;-75
2023/07/15 04:17:33;;;;;;;5.60;3.60;;;;;;;18.14;73.19;99830.77;106068;1258;73017;-74
2023/07/15 04:20:00;;;;;;;4.10;3.20;;;;;;;18.22;72.83;99834.38;105921;1258;70840;-74
2023/07/15 04:22:29;;;;;;;4.80;3.30;;;;;;;18.36;72.27;99833.29;105851;1255;72393;-76
2023/07/15 04:24:56;;;;;;;8.40;4.10;;;;;;;18.49;71.94;99836.80;105511;1256;60464;-74
2023/07/15 04:27:22;;;;;;;6.30;3.30;;;;;;;18.55;71.55;99839.23;105848;1257;59654;-76
2023/07/15 04:29:49;;;;;;;6.10;4.60;;;;;;;18.58;71.31;99840.42;105577;1262;73109;-77
2023/07/15 04:32:16;;;;;;;7.20;4.50;;;;;;;18.63;71.34;99842.38;105973;1254;70692;-76
2023/07/15 04:34:49;;;;;;;6.10;3.90;;;;;;;18.70;71.26;99845.55;105956;1255;71756;-76
2023/07/15 04:37:17;;;;;;;5.00;3.60;;;;;;;18.80;71.44;99850.97;106438;1254;60092;-75
2023/07/15 04:39:44;;;;;;;4.50;3.70;;;;;;;18.94;71.37;99855.24;107405;1254;60348;-75
2023/07/15 04:42:11;;;;;;;4.00;3.40;;;;;;;19.09;70.89;99858.20;105626;1260;72806;-73
2023/07/15 04:44:38;;;;;;;4.20;3.80;;;;;;;19.21;70.42;99859.23;106510;1254;69673;-76
2023/07/15 04:47:05;;;;;;;4.60;3.70;;;;;;;19.32;69.62;99862.89;106758;1256;71638;-77
2023/07/15 04:49:33;;;;;;;5.40;3.70;;;;;;;19.37;69.20;99857.67;106511;1252;59735;-77
2023/07/15 04:52:01;;;;;;;4.90;3.40;;;;;;;19.42;69.39;99859.92;106398;1254;60089;-78
2023/07/15 04:54:27;;;;;;;5.90;3.80;;;;;;;19.50;68.97;99861.97;106206;1254;73048;-79
2023/07/15 04:56:54;;;;;;;6.80;3.60;;;;;;;19.51;68.63;99862.52;106598;1254;68264;-79
2023/07/15 04:59:21;;;;;;;4.00;3.60;;;;;;;19.48;68.63;99862.56;106674;1256;72374;-81
2023/07/15 05:01:49;;;;;;;5.90;3.90;;;;;;;19.50;68.74;99863.04;106981;1254;60136;-78
2023/07/15 05:04:16;;;;;;;7.00;3.90;;;;;;;19.52;68.65;99863.02;106544;1254;59732;-75
2023/07/15 05:06:45;;;;;;;7.30;4.30;;;;;;;19.53;68.39;99866.52;106144;1256;73090;-74
2023/07/15 05:09:12;;;;;;;5.40;3.50;;;;;;;19.52;68.41;99863.88;107005;1253;69344;-74
2023/07/15 05:11:40;;;;;;;3.90;3.60;;;;;;;19.53;68.34;99863.67;106752;1254;73021;-74
2023/07/15 05:14:07;;;;;;;7.20;4.30;;;;;;;19.56;68.44;99860.08;105351;1254;60127;-74
2023/07/15 05:16:33;;;;;;;6.00;3.60;;;;;;;19.64;68.24;99863.38;105833;1253;60296;-74
2023/07/15 05:19:00;;;;;;;4.80;4.30;;;;;;;19.74;68.25;99861.41;105893;1256;73804;-73
2023/07/15 05:21:27;;;;;;;7.70;4.10;;;;;;;19.97;67.85;99859.21;105754;1254;69360;-75
2023/07/15 05:23:54;;;;;;;4.70;4.00;;;;;;;20.12;66.95;99861.04;105768;1256;72711;-74
2023/07/15 05:26:21;;;;;;;5.60;3.90;;;;;;;20.18;66.39;99862.20;105970;1254;60250;-72
2023/07/15 05:28:48;;;;;;;5.30;3.60;;;;;;;20.18;66.36;99862.20;105810;1257;60319;-72
2023/07/15 05:31:15;;;;;;;7.30;3.40;;;;;;;20.18;66.41;99861.61;105778;1256;73383;-72
2023/07/15 05:33:44;;;;;;;6.50;3.50;;;;;;;20.21;66.59;99864.41;105714;1254;70833;-74
2023/07/15 05:36:13;;;;;;;4.20;3.80;;;;;;;20.26;66.84;99864.02;105933;1254;72991;-73
2023/07/15 05:38:42;;;;;;;4.90;3.50;;;;;;;20.30;66.51;99868.27;106440;1254;59647;-73
2023/07/15 05:41:10;;;;;;;4.10;3.50;;;;;;;20.32;66.10;99863.23;106958;1254;60216;-74
2023/07/15 05:43:37;;;;;;;4.70;3.50;;;;;;;20.31;66.07;99869.95;105645;1259;72472;-74
2023/07/15 05:46:04;;;;;;;3.20;2.90;;;;;;;20.31;65.95;99870.13;105826;1254;70463;-75
2023/07/15 05:48:32;;;;;;;4.90;3.80;;;;;;;20.32;65.82;99869.81;105802;1255;72699;-73
2023/07/15 05:50:58;;;;;;;7.80;3.90;;;;;;;20.32;66.06;99867.79;105622;1254;60657;-74
2023/07/15 05:53:25;;;;;;;6.20;3.90;;;;;;;20.36;65.99;99867.56;105937;1252;60310;-72
2023/07/15 05:55:52;;;;;;;6.40;4.50;;;;;;;20.43;65.91;99872.16;105743;1256;72801;-73
2023/07/15 05:58:23;;;;;;;6.60;3.70;;;;;;;20.51;65.64;99869.46;105732;1257;70217;-72
2023/07/15 06:00:51;;;;;;;7.70;3.60;;;;;;;20.60;65.78;99868.84;105563;1254;72989;-72
2023/07/15 06:03:18;;;;;;;6.70;5.20;;;;;;;20.71;65.59;99867.20;105849;1257;60023;-73
2023/07/15 06:05:45;;;;;;;5.10;3.80;;;;;;;20.83;64.77;99872.61;105881;1255;60107;-72
2023/07/15 06:08:12;;;;;;;5.80;3.50;;;;;;;20.89;64.33;99871.45;106686;1257;73486;-71
2023/07/15 06:10:42;;;;;;;4.90;3.60;;;;;;;20.92;64.12;99871.86;106738;1256;70878;-72
2023/07/15 06:13:10;;;;;;;4.70;3.80;;;;;;;20.92;64.09;99873.22;105784;1254;74581;-77
2023/07/15 06:15:38;;;;;;;4.50;3.90;;;;;;;20.94;64.18;99874.13;105791;1254;60054;-72
2023/07/15 06:18:06;;;;;;;6.10;5.10;;;;;;;20.97;63.99;99870.59;105740;1253;60623;-72
2023/07/15 06:20:40;;;;;;;4.20;3.40;;;;;;;20.99;64.24;99869.67;105667;1254;73261;-74
2023/07/15 06:23:06;;;;;;;5.20;3.60;;;;;;;21.07;64.34;99873.23;105789;1254;70645;-73
2023/07/15 06:25:34;;;;;;;4.60;3.40;;;;;;;21.18;64.34;99876.30;105834;1254;73233;-74
2023/07/15 06:28:01;;;;;;;5.80;4.20;;;;;;;21.26;63.98;99875.30;105837;1254;60381;-74
2023/07/15 06:30:28;;;;;;;7.30;5.00;;;;;;;21.29;63.89;99876.88;105626;1256;60377;-71
2023/07/15 06:32:55;;;;;;;6.60;3.80;;;;;;;21.32;63.71;99873.23;105845;1256;73747;-72
2023/07/15 06:35:22;;;;;;;8.50;3.80;;;;;;;21.44;63.74;99870.74;106065;1254;69851;-73
2023/07/15 06:37:49;;;;;;;6.80;3.10;;;;;;;21.59;63.50;99872.40;106508;1257;73395;-73
2023/07/15 06:40:17;;;;;;;10.60;3.90;;;;;;;21.76;63.55;99872.58;106818;1255;60887;-74
2023/07/15 06:42:44;;;;;;;6.60;4.40;;;;;;;21.88;62.48;99873.83;105831;1254;60238;-74
2023/07/15 06:45:12;;;;;;;5.00;4.20;;;;;;;21.93;61.82;99874.39;105985;1255;73089;-70
2023/07/15 06:47:39;;;;;;;4.70;3.50;;;;;;;21.97;61.55;99871.77;105931;1257;70344;-74
2023/07/15 06:50:07;;;;;;;4.90;3.50;;;;;;;22.03;61.54;99872.10;105991;1255;72170;-73
2023/07/15 06:52:34;;;;;;;7.80;3.80;;;;;;;22.11;61.76;99875.34;105812;1259;60426;-74
2023/07/15 06:55:01;;;;;;;4.20;3.20;;;;;;;22.22;61.65;99871.09;106003;1255;61215;-75
2023/07/15 06:57:28;;;;;;;4.70;3.20;;;;;;;22.35;61.50;99872.27;105634;1259;73371;-74
2023/07/15 06:59:55;;;;;;;7.30;3.70;;;;;;;22.48;60.95;99873.63;105742;1257;70730;-73
2023/07/15 07:02:22;;;;;;;3.70;3.20;;;;;;;22.60;60.07;99875.78;106112;1257;72678;-75
2023/07/15 07:04:49;;;;;;;5.20;3.60;;;;;;;22.65;59.53;99872.89;106753;1253;60430;-74
2023/07/15 07:07:17;;;;;;;3.70;3.00;;;;;;;22.71;60.12;99873.15;108862;1254;59278;-73
2023/07/15 07:09:45;;;;;;;4.50;3.80;;;;;;;22.83;59.57;99879.95;108044;1254;72585;-73
2023/07/15 07:12:14;;;;;;;4.30;3.20;;;;;;;22.90;58.86;99883.38;108246;1254;68990;-76
2023/07/15 07:14:42;;;;;;;4.00;3.30;;;;;;;22.93;58.51;99884.85;108836;1254;71713;-75
2023/07/15 07:17:10;;;;;;;9.10;4.20;;;;;;;22.98;58.63;99888.77;108816;1254;61056;-75
2023/07/15 07:19:37;;;;;;;6.50;3.80;;;;;;;23.03;58.09;99887.23;108044;1252;58850;-76
2023/07/15 07:22:04;;;;;;;5.70;3.50;;;;;;;23.08;58.27;99891.89;108672;1253;74558;-77
2023/07/15 07:24:31;;;;;;;3.30;3.00;;;;;;;23.17;58.52;99892.13;109021;1254;69540;-76
2023/07/15 07:26:58;;;;;;;5.90;2.90;;;;;;;23.29;58.19;99895.03;108510;1254;71826;-76
2023/07/15 07:29:25;;;;;;;4.20;3.50;;;;;;;23.43;57.63;99893.65;108034;1252;60251;-77
2023/07/15 07:31:52;;;;;;;6.60;3.20;;;;;;;23.55;57.20;99896.52;107006;1254;60527;-76
2023/07/15 07:34:19;;;;;;;5.90;3.50;;;;;;;23.63;55.34;99895.23;106025;1254;74441;-75
2023/07/15 07:36:46;;;;;;;3.80;2.80;;;;;;;23.63;55.47;99894.73;107005;1254;69536;-76
2023/07/15 07:39:13;;;;;;;7.10;5.70;;;;;;;23.65;56.13;99894.08;107053;1254;73326;-76
2023/07/15 07:41:42;;;;;;;5.00;3.60;;;;;;;23.73;55.81;99890.43;105716;1255;60581;-76
2023/07/15 07:44:09;;;;;;;6.50;3.80;;;;;;;23.76;55.46;99893.83;105987;1260;60396;-74
2023/07/15 07:46:37;;;;;;;5.20;3.50;;;;;;;23.77;55.24;99896.98;105675;1259;72658;-74
2023/07/15 07:49:04;;;;;;;3.60;2.70;;;;;;;23.75;55.33;99895.71;105685;1255;69382;-73
2023/07/15 07:51:31;;;;;;;3.90;3.10;;;;;;;23.79;54.90;99895.40;105833;1257;72048;-76
2023/07/15 07:53:58;;;;;;;4.50;3.20;;;;;;;23.85;55.15;99895.99;105723;1255;60421;-73
2023/07/15 07:56:25;;;;;;;5.10;3.00;;;;;;;23.95;55.30;99903.05;105819;1255;60533;-76
2023/07/15 07:58:55;;;;;;;7.60;3.60;;;;;;;24.07;54.83;99902.70;105894;1256;74133;-74
2023/07/15 08:01:22;;;;;;;3.90;3.20;;;;;;;24.19;54.68;99903.27;105855;1257;70407;-74
2023/07/15 08:03:49;;;;;;;3.70;2.90;;;;;;;24.30;54.49;99899.22;105789;1254;73150;-75
2023/07/15 08:06:16;;;;;;;5.60;3.00;;;;;;;24.41;54.68;99899.43;106177;1254;60500;-78
2023/07/15 08:08:43;;;;;;;3.70;2.60;;;;;;;24.51;54.28;99897.11;107746;1255;60313;-74
2023/07/15 08:11:09;;;;;;;5.60;3.40;;;;;;;24.60;53.14;99897.27;106468;1256;73938;-71
2023/07/15 08:13:36;;;;;;;4.30;2.60;;;;;;;24.69;52.75;99894.48;105744;1255;70844;-74
2023/07/15 08:16:03;;;;;;;4.10;2.90;;;;;;;24.79;51.81;99897.44;105965;1256;73182;-74
2023/07/15 08:18:30;;;;;;;6.00;2.60;;;;;;;24.85;51.57;99896.36;105834;1256;60450;-73
2023/07/15 08:20:57;;;;;;;5.50;3.10;;;;;;;24.92;51.36;99896.42;105659;1255;60519;-74
2023/07/15 08:23:24;;;;;;;6.50;2.90;;;;;;;24.97;51.94;99897.44;106054;1256;73916;-73
2023/07/15 08:25:52;;;;;;;5.50;3.00;;;;;;;25.06;52.05;99896.58;105792;1257;69484;-74
2023/07/15 08:28:19;;;;;;;3.50;2.40;;;;;;;25.17;51.46;99895.20;105756;1255;73524;-74
2023/07/15 08:30:46;;;;;;;3.60;2.70;;;;;;;25.27;50.40;99890.67;105592;1257;61724;-75
2023/07/15 08:33:13;;;;;;;2.90;2.70;;;;;;;25.38;50.47;99891.83;106208;1255;60401;-72
2023/07/15 08:35:41;;;;;;;4.70;2.90;;;;;;;25.52;50.20;99888.11;106280;1257;74465;-74
2023/07/15 08:38:08;;;;;;;3.70;2.40;;;;;;;25.63;50.07;99891.88;107139;1256;70691;-74
2023/07/15 08:40:35;;;;;;;4.50;2.60;;;;;;;25.79;49.98;99892.27;106420;1256;72094;-73
2023/07/15 08:43:02;;;;;;;3.70;2.40;;;;;;;25.97;49.08;99888.06;105813;1254;60421;-74
2023/07/15 08:45:29;;;;;;;3.60;2.70;;;;;;;26.18;47.58;99887.38;105720;1257;60460;-73
2023/07/15 08:47:56;;;;;;;2.30;2.10;;;;;;;26.36;47.30;99881.04;105722;1256;74350;-72
2023/07/15 08:50:22;;;;;;;4.20;2.40;;;;;;;26.51;47.04;99875.46;105904;1254;70588;-75
2023/07/15 08:52:49;;;;;;;3.90;2.50;;;;;;;26.62;46.32;99881.16;105628;1253;71639;-75
2023/07/15 08:55:17;;;;;;;3.70;2.50;;;;;;;26.75;46.27;99876.71;106032;1257;60697;-73
2023/07/15 08:57:44;;;;;;;2.70;2.30;;;;;;;26.92;45.59;99882.05;105722;1256;60424;-73
2023/07/15 09:00:12;;;;;;;3.40;2.10;;;;;;;27.01;44.46;99876.42;105536;1258;74586;-72
2023/07/15 09:02:39;;;;;;;2.70;2.40;;;;;;;27.10;44.55;99874.45;105870;1266;68774;-74
2023/07/15 09:05:10;;;;;;;4.50;2.10;;;;;;;27.26;44.32;99875.33;106140;1255;73107;-73
2023/07/15 09:07:51;;;;;;;4.20;2.30;;;;;;;27.46;44.38;99874.91;106854;1257;60640;-72
2023/07/15 09:10:19;;;;;;;6.10;2.50;;;;;;;27.70;44.16;99875.86;106216;1254;60685;-74
2023/07/15 09:12:47;;;;;;;3.60;2.20;;;;;;;27.94;44.28;99866.61;105730;1259;74203;-72
2023/07/15 09:15:14;;;;;;;3.30;2.30;;;;;;;28.21;43.55;99867.08;105860;1254;70166;-73
2023/07/15 09:17:42;;;;;;;6.60;4.00;;;;;;;28.46;43.15;99870.14;105645;1254;72899;-75
2023/07/15 09:20:14;;;;;;;3.00;2.40;;;;;;;28.71;42.67;99870.98;105688;1257;60427;-73
2023/07/15 09:22:41;;;;;;;2.40;2.20;;;;;;;28.92;42.09;99869.70;105816;1255;60405;-74
2023/07/15 09:25:10;;;;;;;3.00;2.40;;;;;;;29.20;41.98;99869.52;105774;1254;72218;-73
2023/07/15 09:27:42;;;;;;;5.40;2.40;;;;;;;29.46;41.28;99867.40;105727;1257;69422;-73
2023/07/15 09:30:09;;;;;;;;;;;;;;;29.58;40.49;99870.11;105570;1260;73630;-76
2023/07/15 09:32:37;;;;;;;3.20;2.50;;;;;;;29.68;40.15;99871.91;105544;1264;60456;-76
2023/07/15 09:35:04;;;;;;;2.70;2.50;;;;;;;29.80;40.04;99871.46;107469;1254;60330;-73
2023/07/15 09:37:31;;;;;;;3.20;2.80;;;;;;;30.00;40.00;99868.73;106563;1257;73736;-71
2023/07/15 09:40:00;;;;;;;4.00;2.40;;;;;;;30.37;39.68;99871.26;106300;1257;70248;-74
2023/07/15 09:42:28;;;;;;;3.90;2.30;;;;;;;30.89;38.92;99870.27;105781;1259;73465;-72
2023/07/15 09:44:55;;;;;;;3.50;2.50;;;;;;;31.42;38.25;99867.75;105511;1259;60433;-73
2023/07/15 09:47:23;;;;;;;4.60;2.60;;;;;;;31.79;37.43;99872.02;105618;1257;60536;-74
2023/07/15 09:49:50;;;;;;;4.10;2.30;;;;;;;32.09;37.17;99879.98;106001;1256;74111;-71
2023/07/15 09:52:16;;;;;;;4.40;2.30;;;;;;;32.52;36.58;99871.84;105494;1257;69769;-75
2023/07/15 09:54:43;;;;;;;2.80;2.50;;;;;;;33.01;35.39;99870.21;105538;1257;72649;-73
2023/07/15 09:57:14;;;;;;;3.60;2.50;;;;;;;33.28;35.19;99871.44;105726;1266;60422;-74
2023/07/15 09:59:46;;;;;;;5.20;2.30;;;;;;;33.33;35.03;99871.65;105720;1255;60447;-72
2023/07/15 10:02:30;;;;;;;3.90;2.40;;;;;;;33.17;34.51;99869.44;105573;1258;74206;-74
2023/07/15 10:05:02;;;;;;;3.00;2.50;;;;;;;33.01;35.13;99865.96;105996;1254;70694;-75
2023/07/15 10:07:30;;;;;;;3.00;2.30;;;;;;;33.12;35.19;99861.86;106706;1257;72551;-73
2023/07/15 10:09:58;;;;;;;2.90;2.30;;;;;;;33.31;34.31;99865.31;106341;1258;60479;-75
2023/07/15 10:12:26;;;;;;;3.00;2.60;;;;;;;33.38;33.69;99865.08;105756;1256;60418;-75
2023/07/15 10:14:53;;;;;;;4.70;2.60;;;;;;;33.35;33.67;99859.36;105600;1260;74059;-73
2023/07/15 10:17:20;;;;;;;4.50;2.60;;;;;;;33.41;34.08;99862.14;105606;1264;70575;-72
2023/07/15 10:19:52;;;;;;;2.70;2.20;;;;;;;33.73;33.57;99858.30;105555;1253;74581;-72
2023/07/15 10:22:20;;;;;;;3.30;2.20;;;;;;;34.04;32.80;99855.86;105691;1254;60557;-73
2023/07/15 10:25:11;;;;;;;2.40;2.30;;;;;;;34.25;32.73;99858.21;105458;1257;60437;-72
2023/07/15 10:27:40;;;;;;;3.00;2.70;;;;;;;34.45;32.40;99858.80;105522;1257;65202;-76
2023/07/15 10:30:13;;;;;;;2.90;2.50;;;;;;;34.34;32.22;99860.35;105550;1260;61676;-74
2023/07/15 10:32:58;;;;;;;2.70;2.30;;;;;;;34.03;32.63;99868.02;105708;1257;71657;-73
2023/07/15 10:35:41;;;;;;;3.80;2.40;;;;;;;33.75;32.99;99866.86;106685;1256;60538;-73
2023/07/15 10:38:23;;;;;;;;;;;;;;;33.39;33.38;99866.02;106531;1254;60450;-73
2023/07/15 10:40:51;;;;;;;2.90;2.40;;;;;;;33.00;34.09;99857.02;105731;1256;74185;-71
2023/07/15 10:43:34;;;;;;;2.50;2.10;;;;;;;32.98;34.40;99852.67;105656;1255;70892;-72
2023/07/15 10:46:02;;;;;;;15.70;2.60;;;;;;;33.35;33.91;99845.55;105436;1266;73430;-71
2023/07/15 10:48:29;;;;;;;2.90;2.30;;;;;;;33.93;33.32;99839.54;105770;1257;60515;-73
2023/07/15 10:50:58;;;;;;;3.20;2.50;;;;;;;34.54;31.54;99834.15;105577;1254;60348;-71
2023/07/15 10:53:26;;;;;;;3.10;2.50;;;;;;;34.82;30.49;99834.84;105705;1259;65199;-75
2023/07/15 10:55:57;;;;;;;2.50;2.30;;;;;;;35.00;30.43;99836.70;105688;1255;61360;-71
2023/07/15 10:58:26;;;;;;;2.70;2.10;;;;;;;35.41;29.82;99834.31;105666;1257;64476;-70
2023/07/15 11:01:06;;;;;;;2.10;1.90;;;;;;;35.71;29.55;99833.69;105454;1254;60518;-70
2023/07/15 11:03:37;;;;;;;2.80;2.30;;;;;;;35.92;29.44;99831.27;105870;1258;60290;-73
2023/07/15 11:06:04;;;;;;;2.50;2.30;;;;;;;36.13;30.06;99832.32;107618;1256;63873;-72
2023/07/15 11:08:38;;;;;;;2.20;2.00;;;;;;;36.72;29.70;99831.86;106452;1255;60427;-70
2023/07/15 11:11:07;;;;;;;3.60;2.30;;;;;;;37.33;28.34;99828.08;105879;1257;63964;-71
2023/07/15 11:13:44;;;;;;;2.50;2.30;;;;;;;37.55;28.13;99828.64;105711;1254;60516;-74
2023/07/15 11:16:11;;;;;;;3.60;2.30;;;;;;;37.71;28.27;99834.05;105558;1255;60543;-73
2023/07/15 11:18:38;;;;;;;2.90;1.90;;;;;;;37.92;27.68;99830.08;105716;1258;65290;-73
2023/07/15 11:21:06;;;;;;;2.30;2.10;;;;;;;38.16;27.96;99825.04;105818;1254;61483;-73
2023/07/15 11:23:33;;;;;;;2.50;2.30;;;;;;;38.59;26.88;99824.92;105684;1254;64381;-77
2023/07/15 11:26:08;;;;;;;2.50;2.00;;;;;;;38.66;26.32;99828.59;105543;1260;60536;-73
2023/07/15 11:28:46;;;;;;;3.20;2.40;;;;;;;38.39;26.62;99829.27;105739;1259;60424;-73
2023/07/15 11:31:12;;;;;;;2.30;2.10;;;;;;;38.23;26.65;99825.80;105618;1258;65056;-75
2023/07/15 11:33:40;;;;;;;2.90;2.60;;;;;;;37.89;26.74;99830.55;105689;1255;61420;-77
2023/07/15 11:36:06;;;;;;;2.60;2.30;;;;;;;37.39;26.87;99839.61;106747;1256;63695;-75
2023/07/15 11:38:33;;;;;;;3.90;1.90;;;;;;;36.99;27.42;99839.36;107067;1254;60558;-73
2023/07/15 11:41:00;;;;;;;2.90;2.50;;;;;;;37.02;27.62;99834.16;106241;1256;60508;-77
2023/07/15 11:43:30;;;;;;;3.70;2.00;;;;;;;37.37;27.26;99826.63;106117;1257;65107;-74
2023/07/15 11:45:57;;;;;;;2.40;2.10;;;;;;;37.76;26.86;99825.98;105733;1254;61469;-74
2023/07/15 11:48:25;;;;;;;3.20;2.30;;;;;;;38.30;26.21;99826.31;105633;1257;64080;-75
2023/07/15 11:50:57;;;;;;;2.50;1.90;;;;;;;38.73;25.42;99826.00;105583;1258;60654;-74
2023/07/15 11:53:25;;;;;;;2.20;2.00;;;;;;;38.60;25.27;99827.30;105761;1257;60514;-76
2023/07/15 11:55:52;;;;;;;2.40;1.90;;;;;;;38.31;25.63;99822.38;106105;1257;65203;-76
2023/07/15 11:58:40;;;;;;;4.80;2.30;;;;;;;38.20;25.86;99819.99;105748;1254;61622;-76
2023/07/15 12:01:11;;;;;;;2.00;1.90;;;;;;;38.24;26.53;99818.45;105684;1258;62666;-75
2023/07/15 12:03:40;;;;;;;2.80;2.30;;;;;;;38.45;26.14;99816.98;106476;1256;60536;-76
2023/07/15 12:06:22;;;;;;;2.20;2.00;;;;;;;38.43;26.63;99817.70;107098;1255;60303;-73
2023/07/15 12:09:12;;;;;;;2.20;2.00;;;;;;;38.36;26.50;99824.58;107261;1254;63947;-73
2023/07/15 12:11:40;;;;;;;3.30;2.40;;;;;;;38.05;27.01;99823.45;105916;1256;61542;-73
2023/07/15 12:14:07;;;;;;;3.10;2.70;;;;;;;37.69;27.54;99829.02;105562;1260;63957;-74
2023/07/15 12:16:35;;;;;;;2.40;2.20;;;;;;;37.27;27.70;99826.64;105742;1253;60479;-74
2023/07/15 12:19:02;;;;;;;2.80;2.10;;;;;;;36.75;27.94;99828.33;106342;1253;60453;-74
2023/07/15 12:21:29;;;;;;;2.90;2.10;;;;;;;36.13;28.88;99831.34;106187;1257;65187;-73
2023/07/15 12:23:57;;;;;;;2.60;2.20;;;;;;;35.81;28.57;99826.98;105738;1254;60395;-74
2023/07/15 12:26:24;;;;;;;2.30;2.20;;;;;;;35.96;28.52;99823.55;105842;1255;64108;-73
2023/07/15 12:28:51;;;;;;;2.30;2.10;;;;;;;36.32;28.54;99820.98;105870;1252;60422;-75
2023/07/15 12:31:18;;;;;;;2.60;2.40;;;;;;;36.88;27.96;99815.02;105716;1254;60504;-74
2023/07/15 12:33:46;;;;;;;2.70;2.50;;;;;;;37.47;27.61;99804.77;106213;1254;65130;-75
2023/07/15 12:36:15;;;;;;;5.30;4.80;;;;;;;38.04;27.02;99805.66;107527;1253;61748;-76
2023/07/15 12:38:43;;;;;;;2.50;2.30;;;;;;;38.40;25.86;99805.81;107262;1254;62799;-75
2023/07/15 12:41:11;;;;;;;3.10;2.10;;;;;;;38.22;25.65;99804.98;106065;1253;60326;-74
2023/07/15 12:43:38;;;;;;;2.40;2.20;;;;;;;37.90;25.33;99800.18;105933;1254;60421;-75
2023/07/15 12:46:05;;;;;;;2.60;2.40;;;;;;;37.65;25.95;99800.62;105782;1257;65260;-77
2023/07/15 12:48:32;;;;;;;3.50;2.40;;;;;;;37.97;26.40;99800.45;105746;1254;61784;-75
2023/07/15 12:50:59;;;;;;;2.80;1.80;;;;;;;38.37;26.17;99796.23;106103;1254;64139;-77
2023/07/15 12:53:26;;;;;;;2.70;2.30;;;;;;;38.47;26.11;99798.23;105717;1254;60460;-76
2023/07/15 12:55:54;;;;;;;2.10;1.90;;;;;;;38.35;26.39;99802.43;105958;1257;60424;-73
2023/07/15 12:58:21;;;;;;;2.40;2.00;;;;;;;38.31;26.19;99804.30;105950;1257;65419;-74
2023/07/15 13:00:48;;;;;;;2.80;2.00;;;;;;;38.39;26.47;99802.95;105711;1257;61584;-73
2023/07/15 13:03:15;;;;;;;2.80;2.40;;;;;;;38.70;26.37;99801.02;107235;1258;63924;-75
2023/07/15 13:05:43;;;;;;;2.60;2.40;;;;;;;39.16;26.17;99798.95;107277;1254;60450;-74
2023/07/15 13:08:13;;;;;;;2.50;2.30;;;;;;;39.63;25.57;99793.94;107428;1255;60542;-74
2023/07/15 13:10:45;;;;;;;2.30;2.10;;;;;;;39.89;25.18;99790.70;105935;1254;64010;-74
2023/07/15 13:13:12;;;;;;;2.10;1.90;;;;;;;39.71;25.13;99793.48;105941;1254;61818;-72
2023/07/15 13:15:42;;;;;;;2.40;2.20;;;;;;;39.15;25.48;99794.24;105873;1258;62886;-72
2023/07/15 13:18:12;;;;;;;2.10;1.90;;;;;;;38.69;25.92;99795.19;105824;1256;60511;-75
2023/07/15 13:20:39;;;;;;;2.60;2.40;;;;;;;38.46;25.78;99798.68;105921;1253;60523;-74
2023/07/15 13:23:07;;;;;;;2.40;2.00;;;;;;;38.29;26.08;99793.38;105707;1257;65173;-74
2023/07/15 13:25:36;;;;;;;2.00;1.90;;;;;;;37.97;25.65;99790.89;105498;1258;60619;-73
2023/07/15 13:28:03;;;;;;;2.70;2.30;;;;;;;37.46;25.86;99786.23;105703;1255;63865;-73
2023/07/15 13:30:30;;;;;;;2.20;2.10;;;;;;;36.91;26.18;99789.09;106566;1256;60386;-73
2023/07/15 13:32:57;;;;;;;4.20;2.20;;;;;;;36.26;26.67;99790.05;107920;1254;60937;-72
2023/07/15 13:35:24;;;;;;;2.10;2.00;;;;;;;35.67;27.39;99790.49;106230;1257;65072;-74
2023/07/15 13:37:51;;;;;;;2.60;2.40;;;;;;;35.03;27.51;99786.26;105665;1257;61658;-72
2023/07/15 13:40:19;;;;;;;2.30;2.10;;;;;;;34.33;28.27;99785.14;105771;1256;64048;-74
2023/07/15 13:42:46;;;;;;;2.50;2.30;;;;;;;33.88;28.87;99783.81;105742;1254;60466;-73
2023/07/15 13:45:17;;;;;;;5.40;2.50;;;;;;;33.56;28.94;99779.48;105657;1256;60391;-73
2023/07/15 13:47:44;;;;;;;3.50;2.50;;;;;;;33.24;29.03;99781.39;105620;1254;74053;-74
2023/07/15 13:50:11;;;;;;;2.60;2.30;;;;;;;32.93;29.63;99783.75;105602;1254;70995;-79
2023/07/15 13:52:39;;;;;;;3.10;2.20;;;;;;;32.64;30.24;99780.98;106043;1254;71951;-69
2023/07/15 13:55:06;;;;;;;3.30;2.30;;;;;;;32.34;30.26;99785.73;105479;1254;60450;-71
2023/07/15 13:57:33;;;;;;;2.40;2.20;;;;;;;31.97;30.62;99787.16;105901;1257;60473;-73
2023/07/15 14:00:00;;;;;;;3.60;2.20;;;;;;;31.61;31.05;99787.72;106343;1254;74580;-71
2023/07/15 14:02:27;;;;;;;2.40;2.20;;;;;;;31.35;31.16;99788.60;106429;1254;70764;-73
2023/07/15 14:04:54;;;;;;;2.50;2.30;;;;;;;31.17;31.64;99787.20;105820;1254;73257;-73
2023/07/15 14:07:20;;;;;;;2.50;2.30;;;;;;;31.05;31.88;99788.98;105614;1253;60500;-71
2023/07/15 14:09:48;;;;;;;3.90;3.50;;;;;;;30.98;32.38;99785.00;105629;1257;60402;-74
2023/07/15 14:12:15;;;;;;;4.20;3.80;;;;;;;30.89;32.55;99777.41;105762;1256;73938;-72
2023/07/15 14:14:42;;;;;;;3.00;2.50;;;;;;;30.78;32.52;99779.95;105832;1254;70726;-74
2023/07/15 14:17:09;;;;;;;3.00;2.20;;;;;;;30.71;32.84;99775.85;105689;1254;74235;-75
2023/07/15 14:19:36;;;;;;;2.30;1.80;;;;;;;30.68;32.85;99776.13;105628;1254;60446;-73
2023/07/15 14:22:04;;;;;;;2.70;2.20;;;;;;;30.60;32.81;99776.53;105626;1254;60410;-74
2023/07/15 14:24:42;;;;;;;2.20;2.00;;;;;;;30.50;32.93;99771.62;106110;1256;73762;-70
2023/07/15 14:27:10;;;;;;;2.50;2.10;;;;;;;30.34;32.58;99774.02;106075;1254;70306;-72